Time,TemperatureF,DewpointF,PressureIn,WindDirection,WindDirectionDegrees,WindSpeedMPH,WindSpeedGustMPH,Humidity,HourlyPrecipIn,Conditions,Clouds,dailyrainin,SoftwareType,DateUTC
2013-03-24 00:00:00,25.3,15.2,29.38,North,353,0.0,0.0,65,0.00,,,0.00,Weather View 32 v70,2013-03-24 04:00:00,
2013-03-24 00:05:00,25.3,15.2,29.38,North,353,0.0,0.0,65,0.00,,,0.00,Weather View 32 v70,2013-03-24 04:05:00,
2013-03-24 00:10:00,25.2,15.0,29.38,North,353,0.0,0.0,65,0.00,,,0.00,Weather View 32 v70,2013-03-24 04:10:00,
2013-03-24 00:15:00,25.2,14.7,29.38,North,353,0.0,0.0,64,0.00,,,0.00,Weather View 32 v70,2013-03-24 04:15:00,
2013-03-24 00:20:00,25.2,15.0,29.38,North,353,0.0,0.0,65,0.00,,,0.00,Weather View 32 v70,2013-03-24 04:20:00,
2013-03-24 00:25:00,25.0,14.9,29.38,North,353,0.0,0.0,65,0.00,,,0.00,Weather View 32 v70,2013-03-24 04:25:00,
2013-03-24 00:30:00,25.0,14.9,29.38,North,353,0.0,0.0,65,0.00,,,0.00,Weather View 32 v70,2013-03-24 04:30:00,
2013-03-24 00:35:00,25.0,14.9,29.38,North,353,0.0,0.0,65,0.00,,,0.00,Weather View 32 v70,2013-03-24 04:35:00,
2013-03-24 00:50:00,24.6,14.9,29.35,North,353,0.0,0.0,66,0.00,,,0.00,Weather View 32 v70,2013-03-24 04:50:00,
2013-03-24 01:00:00,24.1,15.0,29.35,North,353,0.0,0.0,68,0.00,,,0.00,Weather View 32 v70,2013-03-24 05:00:00,
2013-03-24 01:10:00,23.5,15.2,29.38,North,353,0.0,0.0,70,0.00,,,0.00,Weather View 32 v70,2013-03-24 05:10:00,
2013-03-24 01:20:00,23.5,15.5,29.35,North,353,0.0,0.0,71,0.00,,,0.00,Weather View 32 v70,2013-03-24 05:20:00,
2013-03-24 01:30:00,23.5,15.8,29.35,North,353,0.0,0.0,72,0.00,,,0.00,Weather View 32 v70,2013-03-24 05:30:00,
2013-03-24 01:36:00,23.5,15.8,29.35,North,353,0.0,0.0,72,0.00,,,0.00,Weather View 32 v70,2013-03-24 05:36:00,
2013-03-24 01:50:00,23.5,15.8,29.35,North,353,0.0,0.0,72,0.00,,,0.00,Weather View 32 v70,2013-03-24 05:50:00,
2013-03-24 02:00:00,23.0,15.3,29.35,North,353,0.0,0.0,72,0.00,,,0.00,Weather View 32 v70,2013-03-24 06:00:00,
2013-03-24 02:10:00,22.6,15.3,29.35,North,353,0.0,0.0,73,0.00,,,0.00,Weather View 32 v70,2013-03-24 06:10:00,
2013-03-24 02:20:00,22.6,15.6,29.38,North,353,0.0,0.0,74,0.00,,,0.00,Weather View 32 v70,2013-03-24 06:20:00,
2013-03-24 02:30:00,22.6,15.9,29.38,North,353,0.0,0.0,75,0.00,,,0.00,Weather View 32 v70,2013-03-24 06:30:00,
2013-03-24 02:37:00,22.6,15.9,29.38,North,353,0.0,0.0,75,0.00,,,0.00,Weather View 32 v70,2013-03-24 06:37:00,
2013-03-24 02:50:00,22.3,15.6,29.35,North,353,0.0,0.0,75,0.00,,,0.00,Weather View 32 v70,2013-03-24 06:50:00,
2013-03-24 03:00:00,21.9,15.5,29.35,North,353,0.0,0.0,76,0.00,,,0.00,Weather View 32 v70,2013-03-24 07:00:00,
2013-03-24 03:10:00,21.9,15.5,29.38,North,353,0.0,0.0,76,0.00,,,0.00,Weather View 32 v70,2013-03-24 07:10:00,
2013-03-24 03:20:00,21.9,15.8,29.38,North,353,0.0,0.0,77,0.00,,,0.00,Weather View 32 v70,2013-03-24 07:20:00,
2013-03-24 03:30:00,21.7,15.6,29.38,North,353,0.0,0.0,77,0.00,,,0.00,Weather View 32 v70,2013-03-24 07:30:00,
2013-03-24 03:38:00,21.7,15.6,29.38,North,353,0.0,0.0,77,0.00,,,0.00,Weather View 32 v70,2013-03-24 07:38:00,
2013-03-24 03:50:00,21.9,16.1,29.35,North,353,0.0,0.0,78,0.00,,,0.00,Weather View 32 v70,2013-03-24 07:50:00,
2013-03-24 04:00:00,21.9,16.1,29.35,North,353,0.0,0.0,78,0.00,,,0.00,Weather View 32 v70,2013-03-24 08:00:00,
2013-03-24 04:10:00,21.9,15.8,29.35,North,353,0.0,0.0,77,0.00,,,0.00,Weather View 32 v70,2013-03-24 08:10:00,
2013-03-24 04:20:00,21.7,15.9,29.35,North,353,0.0,0.0,78,0.00,,,0.00,Weather View 32 v70,2013-03-24 08:20:00,
2013-03-24 04:30:00,21.7,15.9,29.35,North,353,0.0,0.0,78,0.00,,,0.00,Weather View 32 v70,2013-03-24 08:30:00,
2013-03-24 04:39:00,21.7,15.9,29.35,North,353,0.0,0.0,78,0.00,,,0.00,Weather View 32 v70,2013-03-24 08:39:00,
2013-03-24 04:50:00,21.9,16.4,29.35,North,353,0.0,0.0,79,0.00,,,0.00,Weather View 32 v70,2013-03-24 08:50:00,
2013-03-24 05:00:00,21.9,16.4,29.35,North,353,0.0,0.0,79,0.00,,,0.00,Weather View 32 v70,2013-03-24 09:00:00,
2013-03-24 05:10:00,22.1,16.6,29.35,North,353,0.0,0.0,79,0.00,,,0.00,Weather View 32 v70,2013-03-24 09:10:00,
2013-03-24 05:20:00,22.5,16.9,29.35,North,353,0.0,0.0,79,0.00,,,0.00,Weather View 32 v70,2013-03-24 09:20:00,
2013-03-24 05:30:00,22.5,16.9,29.35,North,353,0.0,0.0,79,0.00,,,0.00,Weather View 32 v70,2013-03-24 09:30:00,
2013-03-24 05:40:00,22.6,17.1,29.35,North,353,0.0,0.0,79,0.00,,,0.00,Weather View 32 v70,2013-03-24 09:40:00,
2013-03-24 05:50:00,22.6,17.1,29.35,North,353,0.0,0.0,79,0.00,,,0.00,Weather View 32 v70,2013-03-24 09:50:00,
2013-03-24 06:00:00,22.6,17.1,29.35,North,353,0.0,0.0,79,0.00,,,0.00,Weather View 32 v70,2013-03-24 10:00:00,
2013-03-24 06:10:00,22.6,17.1,29.35,North,353,0.0,0.0,79,0.00,,,0.00,Weather View 32 v70,2013-03-24 10:10:00,
2013-03-24 06:20:00,22.6,17.4,29.35,North,353,0.0,0.0,80,0.00,,,0.00,Weather View 32 v70,2013-03-24 10:20:00,
2013-03-24 06:30:00,22.8,17.6,29.35,North,353,0.0,0.0,80,0.00,,,0.00,Weather View 32 v70,2013-03-24 10:30:00,
2013-03-24 06:41:00,22.8,17.6,29.35,North,353,0.0,0.0,80,0.00,,,0.00,Weather View 32 v70,2013-03-24 10:41:00,
2013-03-24 06:50:00,22.8,17.6,29.35,North,353,0.0,0.0,80,0.00,,,0.00,Weather View 32 v70,2013-03-24 10:50:00,
2013-03-24 07:00:00,22.8,17.6,29.35,North,353,0.0,0.0,80,0.00,,,0.00,Weather View 32 v70,2013-03-24 11:00:00,
2013-03-24 07:10:00,23.0,17.8,29.32,North,353,0.0,0.0,80,0.00,,,0.00,Weather View 32 v70,2013-03-24 11:10:00,
2013-03-24 07:20:00,23.0,17.8,29.32,North,353,0.0,0.0,80,0.00,,,0.00,Weather View 32 v70,2013-03-24 11:20:00,
2013-03-24 07:30:00,23.2,18.2,29.32,North,353,0.0,0.0,81,0.00,,,0.00,Weather View 32 v70,2013-03-24 11:30:00,
2013-03-24 07:40:00,23.4,18.4,29.32,North,353,0.0,0.0,81,0.00,,,0.00,Weather View 32 v70,2013-03-24 11:40:00,
2013-03-24 07:50:00,23.5,18.6,29.32,North,353,0.0,0.0,81,0.00,,,0.00,Weather View 32 v70,2013-03-24 11:50:00,
2013-03-24 08:00:00,23.7,18.7,29.32,North,353,0.0,0.0,81,0.00,,,0.00,Weather View 32 v70,2013-03-24 12:00:00,
2013-03-24 08:10:00,24.1,19.1,29.32,North,353,0.0,0.0,81,0.00,,,0.00,Weather View 32 v70,2013-03-24 12:10:00,
2013-03-24 08:20:00,24.4,19.4,29.32,North,353,0.0,0.0,81,0.00,,,0.00,Weather View 32 v70,2013-03-24 12:20:00,
2013-03-24 08:30:00,25.0,20.0,29.32,North,353,0.0,0.0,81,0.00,,,0.00,Weather View 32 v70,2013-03-24 12:30:00,
2013-03-24 08:40:00,25.2,20.2,29.32,NNE,28,0.0,0.0,81,0.00,,,0.00,Weather View 32 v70,2013-03-24 12:40:00,
2013-03-24 08:50:00,25.5,19.9,29.29,ENE,58,0.0,2.0,79,0.00,,,0.00,Weather View 32 v70,2013-03-24 12:50:00,
2013-03-24 09:00:00,25.9,19.7,29.29,ENE,58,0.0,2.0,77,0.00,,,0.00,Weather View 32 v70,2013-03-24 13:00:00,
2013-03-24 09:10:00,26.2,19.7,29.29,ENE,68,0.0,4.0,76,0.00,,,0.00,Weather View 32 v70,2013-03-24 13:10:00,
2013-03-24 09:20:00,27.0,20.1,29.29,ENE,74,4.0,6.0,75,0.00,,,0.00,Weather View 32 v70,2013-03-24 13:20:00,
2013-03-24 09:30:00,27.3,20.4,29.29,ENE,73,0.0,6.0,75,0.00,,,0.00,Weather View 32 v70,2013-03-24 13:30:00,
2013-03-24 09:40:00,27.7,20.2,29.29,ENE,71,0.0,6.0,73,0.00,,,0.00,Weather View 32 v70,2013-03-24 13:40:00,
2013-03-24 09:50:00,28.0,20.5,29.29,ENE,74,3.0,6.0,73,0.00,,,0.00,Weather View 32 v70,2013-03-24 13:50:00,
2013-03-24 10:00:00,28.4,20.5,29.29,ENE,71,3.0,6.0,72,0.00,,,0.00,Weather View 32 v70,2013-03-24 14:00:00,
2013-03-24 10:10:00,28.8,21.2,29.29,ENE,69,0.0,6.0,73,0.00,,,0.00,Weather View 32 v70,2013-03-24 14:10:00,
2013-03-24 10:20:00,29.1,21.2,29.29,NE,48,0.0,6.0,72,0.00,,,0.00,Weather View 32 v70,2013-03-24 14:20:00,
2013-03-24 10:30:00,29.3,21.4,29.29,ENE,72,4.0,6.0,72,0.00,,,0.00,Weather View 32 v70,2013-03-24 14:30:00,
2013-03-24 10:40:00,29.7,21.1,29.26,East,81,0.0,6.0,70,0.00,,,0.00,Weather View 32 v70,2013-03-24 14:40:00,
2013-03-24 10:50:00,30.0,21.4,29.26,ENE,71,0.0,6.0,70,0.00,,,0.00,Weather View 32 v70,2013-03-24 14:50:00,
2013-03-24 11:00:00,30.2,21.3,29.26,ENE,71,0.0,6.0,69,0.00,,,0.00,Weather View 32 v70,2013-03-24 15:00:00,
2013-03-24 11:10:00,30.4,20.4,29.26,ENE,68,0.0,6.0,66,0.00,,,0.00,Weather View 32 v70,2013-03-24 15:10:00,
2013-03-24 11:20:00,30.7,20.4,29.26,ENE,58,0.0,6.0,65,0.00,,,0.00,Weather View 32 v70,2013-03-24 15:20:00,
2013-03-24 11:30:00,30.9,19.8,29.26,NE,48,0.0,6.0,63,0.00,,,0.00,Weather View 32 v70,2013-03-24 15:30:00,
2013-03-24 11:40:00,31.5,19.9,29.26,East,82,4.0,5.0,62,0.00,,,0.00,Weather View 32 v70,2013-03-24 15:40:00,
2013-03-24 11:45:00,31.5,19.9,29.26,East,82,4.0,5.0,62,0.00,,,0.00,Weather View 32 v70,2013-03-24 15:45:00,
2013-03-24 12:00:00,32.2,19.5,29.23,ENE,60,0.0,5.0,59,0.00,,,0.00,Weather View 32 v70,2013-03-24 16:00:00,
2013-03-24 12:10:00,32.7,19.6,29.23,ENE,62,0.0,5.0,58,0.00,,,0.00,Weather View 32 v70,2013-03-24 16:10:00,
2013-03-24 12:20:00,33.1,18.7,29.23,NNE,29,0.0,5.0,55,0.00,,,0.00,Weather View 32 v70,2013-03-24 16:20:00,
2013-03-24 12:30:00,33.4,18.6,29.23,NNE,29,0.0,6.0,54,0.00,,,0.00,Weather View 32 v70,2013-03-24 16:30:00,
2013-03-24 12:40:00,34.2,18.8,29.21,NE,44,0.0,6.0,53,0.00,,,0.00,Weather View 32 v70,2013-03-24 16:40:00,
2013-03-24 12:45:00,34.2,18.8,29.21,NE,44,0.0,6.0,53,0.00,,,0.00,Weather View 32 v70,2013-03-24 16:45:00,
2013-03-24 13:00:00,34.7,18.4,29.21,NNE,29,0.0,6.0,51,0.00,,,0.00,Weather View 32 v70,2013-03-24 17:00:00,
2013-03-24 13:10:00,34.5,17.8,29.21,NNW,346,0.0,6.0,50,0.00,,,0.00,Weather View 32 v70,2013-03-24 17:10:00,
2013-03-24 13:20:00,34.9,18.1,29.18,NNE,27,0.0,6.0,50,0.00,,,0.00,Weather View 32 v70,2013-03-24 17:20:00,
2013-03-24 13:30:00,35.8,18.5,29.18,NNE,31,0.0,6.0,49,0.00,,,0.00,Weather View 32 v70,2013-03-24 17:30:00,
2013-03-24 13:40:00,36.7,18.8,29.18,NE,56,0.0,6.0,48,0.00,,,0.00,Weather View 32 v70,2013-03-24 17:40:00,
2013-03-24 13:46:00,36.7,18.8,29.18,NE,56,0.0,6.0,48,0.00,,,0.00,Weather View 32 v70,2013-03-24 17:46:00,
2013-03-24 14:00:00,36.9,17.0,29.18,North,10,0.0,12.0,44,0.00,,,0.00,Weather View 32 v70,2013-03-24 18:00:00,
2013-03-24 14:10:00,36.9,18.0,29.15,NE,52,0.0,12.0,46,0.00,,,0.00,Weather View 32 v70,2013-03-24 18:10:00,
2013-03-24 14:20:00,36.5,17.2,29.15,East,94,6.0,12.0,45,0.00,,,0.00,Weather View 32 v70,2013-03-24 18:20:00,
2013-03-24 14:30:00,36.9,17.0,29.15,ENE,65,4.0,12.0,44,0.00,,,0.00,Weather View 32 v70,2013-03-24 18:30:00,
2013-03-24 14:40:00,36.3,17.0,29.15,NNE,24,0.0,12.0,45,0.00,,,0.00,Weather View 32 v70,2013-03-24 18:40:00,
2013-03-24 14:47:00,36.3,17.0,29.15,NNE,24,0.0,12.0,45,0.00,,,0.00,Weather View 32 v70,2013-03-24 18:47:00,
2013-03-24 15:00:00,35.1,17.8,29.15,North,349,2.0,10.0,49,0.00,,,0.00,Weather View 32 v70,2013-03-24 19:00:00,
2013-03-24 15:10:00,35.1,17.8,29.15,North,10,6.0,10.0,49,0.00,,,0.00,Weather View 32 v70,2013-03-24 19:10:00,
2013-03-24 15:20:00,35.4,15.6,29.15,ENE,58,4.0,10.0,44,0.00,,,0.00,Weather View 32 v70,2013-03-24 19:20:00,
2013-03-24 15:30:00,36.0,16.1,29.15,ENE,77,7.0,10.0,44,0.00,,,0.00,Weather View 32 v70,2013-03-24 19:30:00,
2013-03-24 15:40:00,36.5,15.0,29.12,East,82,5.0,10.0,41,0.00,,,0.00,Weather View 32 v70,2013-03-24 19:40:00,
2013-03-24 15:48:00,36.5,15.0,29.12,East,82,5.0,10.0,41,0.00,,,0.00,Weather View 32 v70,2013-03-24 19:48:00,
2013-03-24 16:00:00,36.7,14.6,29.12,NNE,12,5.0,8.0,40,0.00,,,0.00,Weather View 32 v70,2013-03-24 20:00:00,
2013-03-24 16:10:00,37.2,15.1,29.12,ENE,66,7.0,8.0,40,0.00,,,0.00,Weather View 32 v70,2013-03-24 20:10:00,
2013-03-24 16:20:00,37.0,14.9,29.12,NNE,13,2.0,8.0,40,0.00,,,0.00,Weather View 32 v70,2013-03-24 20:20:00,
2013-03-24 16:30:00,36.7,14.0,29.12,NNE,17,3.0,8.0,39,0.00,,,0.00,Weather View 32 v70,2013-03-24 20:30:00,
2013-03-24 16:40:00,36.3,14.3,29.12,NNE,21,6.0,9.0,40,0.00,,,0.00,Weather View 32 v70,2013-03-24 20:40:00,
2013-03-24 16:49:00,36.3,14.3,29.12,NNE,21,6.0,9.0,40,0.00,,,0.00,Weather View 32 v70,2013-03-24 20:49:00,
2013-03-24 17:00:00,35.6,14.2,29.09,NNE,26,3.0,9.0,41,0.00,,,0.00,Weather View 32 v70,2013-03-24 21:00:00,
2013-03-24 17:10:00,35.4,14.0,29.09,NE,47,0.0,9.0,41,0.00,,,0.00,Weather View 32 v70,2013-03-24 21:10:00,
2013-03-24 17:20:00,35.2,14.4,29.09,NE,42,6.0,9.0,42,0.00,,,0.00,Weather View 32 v70,2013-03-24 21:20:00,
2013-03-24 17:30:00,34.7,13.9,29.09,NE,50,8.0,9.0,42,0.00,,,0.00,Weather View 32 v70,2013-03-24 21:30:00,
2013-03-24 17:40:00,34.7,14.5,29.09,North,357,2.0,9.0,43,0.00,,,0.00,Weather View 32 v70,2013-03-24 21:40:00,
2013-03-24 17:50:00,34.5,14.8,29.09,ENE,77,5.0,9.0,44,0.00,,,0.00,Weather View 32 v70,2013-03-24 21:50:00,
2013-03-24 18:00:00,34.2,14.5,29.09,East,98,6.0,9.0,44,0.00,,,0.00,Weather View 32 v70,2013-03-24 22:00:00,
2013-03-24 18:10:00,33.8,13.6,29.06,ENE,70,5.0,10.0,43,0.00,,,0.00,Weather View 32 v70,2013-03-24 22:10:00,
2013-03-24 18:20:00,33.4,13.8,29.06,North,10,0.0,11.0,44,0.00,,,0.00,Weather View 32 v70,2013-03-24 22:20:00,
2013-03-24 18:30:00,33.1,14.0,29.06,ENE,69,4.0,11.0,45,0.00,,,0.00,Weather View 32 v70,2013-03-24 22:30:00,
2013-03-24 18:40:00,32.9,13.9,29.06,NNW,336,0.0,11.0,45,0.00,,,0.00,Weather View 32 v70,2013-03-24 22:40:00,
2013-03-24 19:00:00,32.7,14.7,29.06,North,353,3.0,11.0,47,0.00,,,0.00,Weather View 32 v70,2013-03-24 23:00:00,
2013-03-24 19:10:00,32.5,14.0,29.06,NNE,20,2.0,11.0,46,0.00,,,0.00,Weather View 32 v70,2013-03-24 23:10:00,
2013-03-24 19:20:00,32.4,15.8,29.06,NE,38,0.0,8.0,50,0.00,,,0.00,Weather View 32 v70,2013-03-24 23:20:00,
2013-03-24 19:30:00,32.2,14.7,29.06,East,79,4.0,10.0,48,0.00,,,0.00,Weather View 32 v70,2013-03-24 23:30:00,
2013-03-24 19:40:00,32.0,14.0,29.06,ENE,74,9.0,10.0,47,0.00,,,0.00,Weather View 32 v70,2013-03-24 23:40:00,
2013-03-24 19:50:00,31.8,14.3,29.06,ENE,67,2.0,10.0,48,0.00,,,0.00,Weather View 32 v70,2013-03-24 23:50:00,
2013-03-24 20:00:00,31.6,14.2,29.06,East,95,2.0,10.0,48,0.00,,,0.00,Weather View 32 v70,2013-03-25 00:00:00,
2013-03-24 20:10:00,31.6,14.7,29.06,NNE,17,3.0,10.0,49,0.00,,,0.00,Weather View 32 v70,2013-03-25 00:10:00,
2013-03-24 20:20:00,31.5,14.0,29.06,NNE,18,3.0,10.0,48,0.00,,,0.00,Weather View 32 v70,2013-03-25 00:20:00,
2013-03-24 20:30:00,31.5,14.5,29.06,ENE,74,2.0,9.0,49,0.00,,,0.00,Weather View 32 v70,2013-03-25 00:30:00,
2013-03-24 20:40:00,31.3,14.3,29.06,NE,37,0.0,9.0,49,0.00,,,0.00,Weather View 32 v70,2013-03-25 00:40:00,
2013-03-24 20:49:00,31.3,14.3,29.06,NNE,26,0.0,6.0,49,0.00,,,0.00,Weather View 32 v70,2013-03-25 00:49:00,
2013-03-24 20:59:00,31.1,14.6,29.06,North,6,0.0,6.0,50,0.00,,,0.00,Weather View 32 v70,2013-03-25 00:59:00,
2013-03-24 21:10:00,31.1,14.6,29.06,NNE,20,0.0,6.0,50,0.00,,,0.00,Weather View 32 v70,2013-03-25 01:10:00,
2013-03-24 21:20:00,30.9,14.9,29.03,NNE,19,0.0,6.0,51,0.00,,,0.00,Weather View 32 v70,2013-03-25 01:20:00,
2013-03-24 21:30:00,30.7,14.7,29.03,NNE,27,0.0,6.0,51,0.00,,,0.00,Weather View 32 v70,2013-03-25 01:30:00,
2013-03-24 21:40:00,30.7,15.2,29.06,NNE,20,0.0,6.0,52,0.00,,,0.00,Weather View 32 v70,2013-03-25 01:40:00,
2013-03-24 21:50:00,30.7,15.2,29.06,North,3,0.0,6.0,52,0.00,,,0.00,Weather View 32 v70,2013-03-25 01:50:00,
2013-03-24 22:00:00,30.7,15.6,29.06,NE,43,0.0,6.0,53,0.00,,,0.00,Weather View 32 v70,2013-03-25 02:00:00,
2013-03-24 22:09:00,30.6,15.9,29.06,NNE,21,0.0,6.0,54,0.00,,,0.00,Weather View 32 v70,2013-03-25 02:09:00,
2013-03-24 22:20:00,30.6,15.9,29.03,North,9,0.0,4.0,54,0.00,,,0.00,Weather View 32 v70,2013-03-25 02:20:00,
2013-03-24 22:30:00,30.4,15.7,29.03,North,11,0.0,4.0,54,0.00,,,0.00,Weather View 32 v70,2013-03-25 02:30:00,
2013-03-24 22:40:00,30.4,15.7,29.03,NE,54,0.0,4.0,54,0.00,,,0.00,Weather View 32 v70,2013-03-25 02:40:00,
2013-03-24 22:50:00,30.2,16.0,29.03,North,357,0.0,4.0,55,0.00,,,0.00,Weather View 32 v70,2013-03-25 02:50:00,
2013-03-24 22:59:00,30.2,16.0,29.03,NNE,25,0.0,4.0,55,0.00,,,0.00,Weather View 32 v70,2013-03-25 02:59:00,
2013-03-24 23:10:00,30.2,16.0,29.03,NNE,30,0.0,4.0,55,0.00,,,0.00,Weather View 32 v70,2013-03-25 03:10:00,
2013-03-24 23:20:00,30.0,15.8,29.03,North,7,0.0,4.0,55,0.00,,,0.00,Weather View 32 v70,2013-03-25 03:20:00,
2013-03-24 23:30:00,30.0,15.8,29.03,North,357,2.0,5.0,55,0.00,,,0.00,Weather View 32 v70,2013-03-25 03:30:00,
2013-03-24 23:40:00,29.8,15.6,29.03,NNE,12,0.0,5.0,55,0.00,,,0.00,Weather View 32 v70,2013-03-25 03:40:00,
2013-03-24 23:50:00,29.8,15.6,29.03,North,10,0.0,5.0,55,0.00,,,0.00,Weather View 32 v70,2013-03-25 03:50:00,
2013-03-24 23:55:00,29.8,15.6,29.03,North,10,0.0,5.0,55,0.00,,,0.00,Weather View 32 v70,2013-03-25 03:55:00,